createdAt,value
2023-06-19T00:02:20.088Z,24.12
2023-06-19T00:04:49.058Z,23.23
2023-06-19T00:07:16.805Z,22.57
2023-06-19T00:09:44.366Z,22.83
2023-06-19T00:12:12.542Z,23.05
2023-06-19T00:14:40.422Z,22.65
2023-06-19T00:17:08.163Z,22.65
2023-06-19T00:19:37.211Z,23.31
2023-06-19T00:22:06.708Z,23.62
2023-06-19T00:24:34.426Z,24.55
2023-06-19T00:27:03.951Z,24.68
2023-06-19T00:29:31.642Z,24.83
2023-06-19T00:31:59.323Z,25.13
2023-06-19T00:34:26.928Z,25.28
2023-06-19T00:36:57.350Z,25.04
2023-06-19T00:39:26.454Z,25.06
2023-06-19T00:41:54.661Z,25.20
2023-06-19T00:44:22.373Z,25.13
2023-06-19T00:46:52.966Z,25.02
2023-06-19T00:49:20.632Z,25.13
2023-06-19T00:51:48.226Z,25.25
2023-06-19T00:54:16.441Z,24.99
2023-06-19T00:56:46.237Z,24.73
2023-06-19T00:59:17.546Z,23.12
2023-06-19T01:01:45.358Z,22.25
2023-06-19T01:04:13.144Z,22.06
2023-06-19T01:06:46.041Z,22.38
2023-06-19T01:09:15.205Z,22.60
2023-06-19T01:11:46.659Z,22.94
2023-06-19T01:14:16.370Z,22.95
2023-06-19T01:16:44.043Z,22.85
2023-06-19T01:19:12.364Z,22.80
2023-06-19T01:21:41.637Z,22.82
2023-06-19T01:24:10.631Z,22.84
2023-06-19T01:26:40.094Z,22.99
2023-06-19T01:29:07.900Z,22.88
2023-06-19T01:31:36.145Z,23.31
2023-06-19T01:34:03.877Z,23.01
2023-06-19T01:36:32.357Z,22.97
2023-06-19T01:39:01.721Z,22.84
2023-06-19T01:41:32.498Z,22.94
2023-06-19T01:44:00.271Z,22.76
2023-06-19T01:46:28.225Z,22.86
2023-06-19T01:48:56.968Z,22.86
2023-06-19T01:51:24.666Z,22.52
2023-06-19T01:53:52.424Z,22.63
2023-06-19T01:56:20.102Z,22.77
2023-06-19T01:58:49.032Z,22.69
2023-06-19T02:01:16.659Z,22.73
2023-06-19T02:03:44.337Z,22.43
2023-06-19T02:06:13.039Z,22.46
2023-06-19T02:08:40.634Z,22.31
2023-06-19T02:11:12.577Z,22.10
2023-06-19T02:13:41.871Z,22.13
2023-06-19T02:16:10.900Z,22.28
2023-06-19T02:18:38.518Z,22.23
2023-06-19T02:21:06.257Z,22.24
2023-06-19T02:23:33.862Z,22.56
2023-06-19T02:26:01.607Z,22.36
2023-06-19T02:28:29.269Z,22.37
2023-06-19T02:30:56.947Z,22.28
2023-06-19T02:33:25.833Z,22.27
2023-06-19T02:36:00.416Z,22.58
2023-06-19T02:38:29.489Z,22.29
2023-06-19T02:41:34.568Z,22.23
2023-06-19T02:44:04.927Z,22.31
2023-06-19T02:46:32.875Z,22.25
2023-06-19T02:52:42.546Z,21.34
2023-06-19T02:55:10.531Z,21.27
2023-06-19T02:57:38.155Z,21.25
2023-06-19T03:00:08.015Z,21.14
2023-06-19T03:02:35.712Z,21.17
2023-06-19T03:05:03.690Z,21.08
2023-06-19T03:07:31.316Z,21.27
2023-06-19T03:10:00.399Z,21.38
2023-06-19T03:12:28.119Z,21.54
2023-06-19T03:14:56.005Z,21.23
2023-06-19T03:17:25.496Z,21.07
2023-06-19T03:19:53.247Z,20.96
2023-06-19T03:22:21.725Z,21.30
2023-06-19T03:24:50.036Z,21.49
2023-06-19T03:27:23.931Z,22.29
2023-06-19T03:29:51.649Z,21.89
2023-06-19T03:32:25.842Z,22.18
2023-06-19T03:34:53.481Z,22.12
2023-06-19T03:37:21.188Z,21.84
2023-06-19T03:39:49.957Z,22.04
2023-06-19T03:42:17.606Z,21.99
2023-06-19T03:44:46.645Z,22.29
2023-06-19T03:47:14.257Z,21.47
2023-06-19T03:49:42.628Z,21.37
2023-06-19T03:52:10.314Z,21.38
2023-06-19T03:54:37.932Z,21.89
2023-06-19T03:57:05.853Z,22.78
2023-06-19T03:59:33.465Z,22.87
2023-06-19T04:02:02.463Z,23.38
2023-06-19T04:04:30.121Z,23.04
2023-06-19T04:06:58.444Z,23.30
2023-06-19T04:09:26.092Z,23.51
2023-06-19T04:11:55.312Z,23.63
2023-06-19T04:14:25.027Z,23.86
2023-06-19T04:16:52.766Z,23.84
2023-06-19T04:19:21.730Z,24.12
2023-06-19T04:21:49.467Z,23.95
2023-06-19T04:24:17.182Z,23.65
2023-06-19T04:26:44.802Z,23.76
2023-06-19T04:29:18.132Z,23.97
2023-06-19T04:31:48.049Z,24.02
2023-06-19T04:34:17.388Z,24.34
2023-06-19T04:36:46.807Z,24.42
2023-06-19T04:39:14.482Z,24.47
2023-06-19T04:41:42.193Z,24.62
2023-06-19T04:44:10.071Z,24.83
2023-06-19T04:46:38.850Z,24.91
2023-06-19T04:49:06.802Z,25.19
2023-06-19T04:51:34.725Z,25.37
2023-06-19T04:54:03.795Z,25.36
2023-06-19T04:56:31.414Z,25.54
2023-06-19T04:59:00.686Z,25.56
2023-06-19T05:01:29.998Z,25.74
2023-06-19T05:03:58.312Z,25.56
2023-06-19T05:06:26.076Z,25.64
2023-06-19T05:08:53.863Z,25.42
2023-06-19T05:11:22.897Z,25.71
2023-06-19T05:13:50.596Z,25.91
2023-06-19T05:16:20.884Z,25.71
2023-06-19T05:18:48.556Z,25.52
2023-06-19T05:21:16.600Z,25.87
2023-06-19T05:23:44.649Z,26.15
2023-06-19T05:26:12.305Z,26.33
2023-06-19T05:28:41.433Z,25.51
2023-06-19T05:31:09.040Z,24.69
2023-06-19T05:33:36.691Z,24.92
2023-06-19T05:36:04.361Z,25.61
2023-06-19T05:38:32.416Z,25.57
2023-06-19T05:41:00.145Z,25.67
2023-06-19T05:43:27.934Z,25.59
2023-06-19T05:45:57.270Z,25.35
2023-06-19T05:48:26.233Z,25.86
2023-06-19T05:50:53.976Z,25.94
2023-06-19T05:53:21.744Z,25.85
2023-06-19T05:55:49.422Z,26.11
2023-06-19T05:58:20.922Z,26.50
2023-06-19T06:00:48.740Z,26.30
2023-06-19T06:03:17.705Z,26.21
2023-06-19T06:05:49.910Z,26.28
2023-06-19T06:08:17.630Z,26.09
2023-06-19T06:10:45.347Z,26.28
2023-06-19T06:13:13.080Z,26.57
2023-06-19T06:15:40.773Z,26.59
2023-06-19T06:18:08.497Z,26.70
2023-06-19T06:20:37.557Z,26.94
2023-06-19T06:23:05.549Z,26.98
2023-06-19T06:25:33.260Z,26.86
2023-06-19T06:28:01.034Z,26.32
2023-06-19T06:30:29.788Z,26.44
2023-06-19T06:32:57.555Z,26.25
2023-06-19T06:35:25.192Z,26.60
2023-06-19T06:37:54.322Z,26.80
2023-06-19T06:40:22.206Z,26.66
2023-06-19T06:42:50.403Z,26.24
2023-06-19T06:45:18.020Z,26.54
2023-06-19T06:47:45.681Z,26.11
2023-06-19T06:50:13.354Z,25.92
2023-06-19T06:52:41.124Z,26.10
2023-06-19T06:55:10.997Z,25.95
2023-06-19T06:57:38.688Z,26.29
2023-06-19T07:00:08.190Z,26.34
2023-06-19T07:02:35.982Z,26.39
2023-06-19T07:05:03.608Z,26.90
2023-06-19T07:07:31.278Z,26.56
2023-06-19T07:09:58.963Z,26.64
2023-06-19T07:12:28.210Z,25.92
2023-06-19T07:14:56.329Z,25.69
2023-06-19T07:17:24.070Z,25.26
2023-06-19T07:19:52.776Z,25.46
2023-06-19T07:22:20.397Z,26.11
2023-06-19T07:24:48.092Z,25.20
2023-06-19T07:27:15.683Z,24.90
2023-06-19T07:29:45.969Z,24.48
2023-06-19T07:32:13.666Z,24.51
2023-06-19T07:34:41.279Z,25.43
2023-06-19T07:37:09.383Z,26.37
2023-06-19T07:39:37.064Z,24.95
2023-06-19T07:42:05.018Z,25.23
2023-06-19T07:44:32.667Z,25.31
2023-06-19T07:47:01.635Z,24.74
2023-06-19T07:49:29.335Z,24.87
2023-06-19T07:51:56.974Z,25.09
2023-06-19T07:54:24.649Z,25.16
2023-06-19T07:56:52.411Z,25.28
2023-06-19T07:59:20.364Z,25.74
2023-06-19T08:01:48.102Z,25.54
2023-06-19T08:04:17.106Z,24.91
2023-06-19T08:06:44.844Z,25.49
2023-06-19T08:09:12.514Z,26.11
2023-06-19T08:11:40.217Z,27.14
2023-06-19T08:14:07.928Z,26.57
2023-06-19T08:16:35.743Z,26.13
2023-06-19T08:19:03.401Z,26.38
2023-06-19T08:21:32.762Z,27.46
2023-06-19T08:24:00.539Z,27.45
2023-06-19T08:26:30.817Z,27.45
2023-06-19T08:28:58.464Z,26.68
2023-06-19T08:31:28.513Z,26.99
2023-06-19T08:33:56.311Z,26.51
2023-06-19T08:36:25.049Z,25.69
2023-06-19T08:38:54.009Z,25.70
2023-06-19T08:41:21.661Z,25.68
2023-06-19T08:43:49.584Z,25.79
2023-06-19T08:46:18.852Z,27.08
2023-06-19T08:48:48.247Z,27.08
2023-06-19T08:51:15.958Z,26.63
2023-06-19T08:53:46.816Z,26.22
2023-06-19T08:56:15.782Z,25.55
2023-06-19T08:58:43.394Z,25.89
2023-06-19T09:01:11.043Z,27.71
2023-06-19T09:03:38.668Z,27.02
2023-06-19T09:06:08.449Z,26.87
2023-06-19T09:08:36.621Z,28.61
2023-06-19T09:11:04.951Z,28.81
2023-06-19T09:13:34.730Z,26.38
2023-06-19T09:16:04.848Z,27.24
2023-06-19T09:18:33.090Z,26.65
2023-06-19T09:21:00.983Z,28.10
2023-06-19T09:23:28.624Z,29.18
2023-06-19T09:25:59.961Z,28.55
2023-06-19T09:28:32.858Z,28.40
2023-06-19T09:31:02.799Z,28.10
2023-06-19T09:33:31.849Z,27.31
2023-06-19T09:36:00.544Z,27.36
2023-06-19T09:38:28.810Z,28.55
2023-06-19T09:40:57.489Z,27.35
2023-06-19T09:43:26.384Z,27.21
2023-06-19T09:45:56.935Z,26.63
2023-06-19T09:48:29.461Z,27.50
2023-06-19T09:51:01.805Z,28.36
2023-06-19T09:53:29.727Z,28.06
2023-06-19T09:55:57.352Z,29.18
2023-06-19T09:58:25.690Z,29.40
2023-06-19T10:00:54.127Z,29.13
2023-06-19T10:03:21.917Z,29.45
2023-06-19T10:05:59.168Z,29.95
2023-06-19T10:08:31.510Z,26.88
2023-06-19T10:10:59.351Z,27.21
2023-06-19T10:13:33.513Z,29.11
2023-06-19T10:16:01.526Z,31.03
2023-06-19T10:18:29.251Z,27.62
2023-06-19T10:20:59.253Z,27.43
2023-06-19T10:23:29.695Z,29.93
2023-06-19T10:25:58.402Z,31.83
2023-06-19T10:28:26.976Z,30.91
2023-06-19T10:30:55.837Z,31.95
2023-06-19T10:33:24.190Z,28.73
2023-06-19T10:35:51.920Z,29.87
2023-06-19T10:38:20.959Z,30.11
2023-06-19T10:40:49.042Z,31.51
2023-06-19T10:43:21.828Z,31.37
2023-06-19T10:45:49.542Z,31.77
2023-06-19T10:48:21.027Z,30.40
2023-06-19T10:50:49.245Z,32.25
2023-06-19T10:53:26.889Z,35.07
2023-06-19T10:55:56.893Z,32.45
2023-06-19T10:58:24.770Z,29.42
2023-06-19T11:00:52.375Z,29.22
2023-06-19T11:03:20.739Z,29.25
2023-06-19T11:05:48.943Z,29.65
2023-06-19T11:08:19.323Z,30.48
2023-06-19T11:10:48.423Z,29.34
2023-06-19T11:13:17.531Z,29.05
2023-06-19T11:15:45.700Z,29.86
2023-06-19T11:18:13.779Z,28.42
2023-06-19T11:20:47.467Z,28.74
2023-06-19T11:23:15.210Z,30.37
2023-06-19T11:25:43.382Z,33.30
2023-06-19T11:28:15.692Z,33.69
2023-06-19T11:30:44.942Z,33.97
2023-06-19T11:33:23.203Z,33.55
2023-06-19T11:35:51.445Z,33.41
2023-06-19T11:38:21.116Z,30.74
2023-06-19T11:40:49.196Z,31.25
2023-06-19T11:43:27.487Z,29.43
2023-06-19T11:45:55.962Z,31.23
2023-06-19T11:48:24.332Z,32.76
2023-06-19T11:50:52.896Z,33.98
2023-06-19T11:53:20.593Z,33.35
2023-06-19T11:55:48.246Z,29.65
2023-06-19T11:58:16.545Z,30.21
2023-06-19T12:00:45.601Z,31.78
2023-06-19T12:03:13.503Z,31.55
2023-06-19T12:05:41.395Z,33.35
2023-06-19T12:08:09.068Z,33.54
2023-06-19T12:10:37.377Z,33.44
2023-06-19T12:13:04.985Z,33.23
2023-06-19T12:15:33.124Z,31.24
2023-06-19T12:18:04.363Z,30.50
2023-06-19T12:20:32.068Z,32.50
2023-06-19T12:22:59.676Z,34.87
2023-06-19T12:25:27.407Z,34.99
2023-06-19T12:27:55.879Z,33.14
2023-06-19T12:30:24.807Z,34.52
2023-06-19T12:32:52.735Z,34.92
2023-06-19T12:35:23.228Z,34.50
2023-06-19T12:37:50.858Z,33.04
2023-06-19T12:40:18.509Z,33.19
2023-06-19T12:42:46.148Z,34.55
2023-06-19T12:45:13.827Z,36.77
2023-06-19T12:47:41.654Z,37.78
2023-06-19T12:50:10.008Z,37.42
2023-06-19T12:52:38.990Z,37.12
2023-06-19T12:55:06.943Z,34.44
2023-06-19T12:57:34.538Z,38.44
2023-06-19T13:00:02.142Z,40.50
2023-06-19T13:02:29.827Z,39.85
2023-06-19T13:04:58.481Z,41.29
2023-06-19T13:07:26.086Z,41.00
2023-06-19T13:09:55.053Z,41.01
2023-06-19T13:12:23.890Z,40.23
2023-06-19T13:14:51.558Z,40.95
2023-06-19T13:17:19.322Z,40.45
2023-06-19T13:19:47.074Z,40.55
2023-06-19T13:22:14.704Z,40.00
2023-06-19T13:24:42.413Z,40.94
2023-06-19T13:27:11.547Z,38.23
2023-06-19T13:29:40.794Z,34.78
2023-06-19T13:32:08.737Z,35.09
2023-06-19T13:34:36.321Z,35.92
2023-06-19T13:37:04.993Z,32.72
2023-06-19T13:39:32.720Z,35.18
2023-06-19T13:42:01.667Z,36.05
2023-06-19T13:44:30.725Z,35.94
2023-06-19T13:46:58.611Z,36.20
2023-06-19T13:49:26.507Z,36.29
2023-06-19T13:51:54.410Z,36.30
2023-06-19T13:54:22.113Z,36.47
2023-06-19T13:56:50.095Z,37.98
2023-06-19T13:59:18.053Z,36.59
2023-06-19T14:01:46.962Z,35.67
2023-06-19T14:04:14.626Z,33.48
2023-06-19T14:06:43.613Z,32.89
2023-06-19T14:09:11.344Z,34.86
2023-06-19T14:11:38.980Z,35.49
2023-06-19T14:14:06.711Z,36.53
2023-06-19T14:16:34.483Z,35.08
2023-06-19T14:19:03.593Z,34.84
2023-06-19T14:21:31.201Z,35.71
2023-06-19T14:23:58.888Z,35.39
2023-06-19T14:26:26.818Z,35.82
2023-06-19T14:28:58.330Z,36.11
2023-06-19T14:31:26.132Z,36.46
2023-06-19T14:33:53.706Z,37.39
2023-06-19T14:36:22.686Z,37.05
2023-06-19T14:38:50.345Z,37.28
2023-06-19T14:41:18.062Z,36.77
2023-06-19T14:43:45.792Z,36.28
2023-06-19T14:46:20.338Z,35.62
2023-06-19T14:48:53.897Z,35.21
2023-06-19T14:51:22.875Z,35.04
2023-06-19T14:53:50.449Z,35.67
2023-06-19T14:56:18.083Z,34.95
2023-06-19T14:58:45.821Z,35.72
2023-06-19T15:01:13.673Z,35.20
2023-06-19T15:03:41.380Z,34.79
2023-06-19T15:06:09.023Z,34.80
2023-06-19T15:08:39.748Z,35.27
2023-06-19T15:11:07.624Z,35.16
2023-06-19T15:13:36.158Z,36.06
2023-06-19T15:16:06.119Z,36.35
2023-06-19T15:18:33.841Z,35.48
2023-06-19T15:21:01.577Z,34.67
2023-06-19T15:23:29.251Z,34.78
2023-06-19T15:25:58.438Z,32.96
2023-06-19T15:28:26.096Z,29.92
2023-06-19T15:30:53.772Z,27.82
2023-06-19T15:33:22.149Z,27.40
2023-06-19T15:35:50.749Z,27.19
2023-06-19T15:38:18.480Z,27.22
2023-06-19T15:40:46.151Z,27.16
2023-06-19T15:43:15.436Z,27.59
2023-06-19T15:45:43.156Z,28.12
2023-06-19T15:48:10.841Z,28.42
2023-06-19T15:50:38.448Z,28.50
2023-06-19T15:53:06.155Z,28.63
2023-06-19T15:55:34.054Z,28.86
2023-06-19T15:58:03.565Z,29.00
2023-06-19T16:00:32.578Z,28.86
2023-06-19T16:03:00.320Z,29.08
2023-06-19T16:05:28.028Z,28.40
2023-06-19T16:07:55.811Z,27.38
2023-06-19T16:10:23.781Z,24.68
2023-06-19T16:12:51.720Z,22.22
2023-06-19T16:15:25.053Z,22.32
2023-06-19T16:17:55.047Z,23.42
2023-06-19T16:20:23.279Z,32.68
2023-06-19T16:22:52.133Z,26.38
2023-06-19T16:25:19.892Z,27.02
2023-06-19T16:27:47.475Z,27.17
2023-06-19T16:30:15.178Z,27.36
2023-06-19T16:32:42.816Z,27.85
2023-06-19T16:35:12.021Z,28.01
2023-06-19T16:37:39.699Z,28.36
2023-06-19T16:40:08.193Z,28.24
2023-06-19T16:42:35.752Z,29.11
2023-06-19T16:45:03.425Z,29.95
2023-06-19T16:47:31.136Z,30.44
2023-06-19T16:49:58.837Z,30.44
2023-06-19T16:52:28.417Z,31.51
2023-06-19T16:54:56.315Z,32.18
2023-06-19T16:57:24.248Z,32.40
2023-06-19T16:59:51.934Z,32.70
2023-06-19T17:02:19.684Z,32.93
2023-06-19T17:04:48.649Z,33.27
2023-06-19T17:07:16.228Z,34.15
2023-06-19T17:09:47.200Z,33.89
2023-06-19T17:12:15.067Z,33.98
2023-06-19T17:14:43.345Z,33.56
2023-06-19T17:17:11.060Z,32.52
2023-06-19T17:19:39.274Z,31.28
2023-06-19T17:22:06.990Z,30.75
2023-06-19T17:24:34.641Z,30.90
2023-06-19T17:27:03.645Z,29.97
2023-06-19T17:29:31.435Z,30.60
2023-06-19T17:31:59.073Z,30.47
2023-06-19T17:34:26.734Z,30.59
2023-06-19T17:36:55.013Z,30.52
2023-06-19T17:39:22.673Z,30.09
2023-06-19T17:41:52.926Z,30.41
2023-06-19T17:44:26.339Z,30.23
2023-06-19T17:46:54.163Z,29.36
2023-06-19T17:49:23.536Z,30.19
2023-06-19T17:51:51.286Z,30.49
2023-06-19T17:54:18.946Z,30.54
2023-06-19T17:56:46.668Z,30.52
2023-06-19T17:59:14.997Z,30.35
2023-06-19T18:01:44.009Z,30.47
2023-06-19T18:04:11.699Z,30.39
2023-06-19T18:06:39.343Z,30.41
2023-06-19T18:09:08.870Z,30.42
2023-06-19T18:11:36.547Z,30.47
2023-06-19T18:14:04.385Z,30.11
2023-06-19T18:16:32.082Z,30.02
2023-06-19T18:19:01.107Z,30.20
2023-06-19T18:21:28.833Z,30.22
2023-06-19T18:23:59.682Z,29.78
2023-06-19T18:26:28.503Z,29.65
2023-06-19T18:28:56.201Z,29.60
2023-06-19T18:31:23.925Z,29.71
2023-06-19T18:33:51.629Z,29.89
2023-06-19T18:36:20.717Z,30.17
2023-06-19T18:38:48.774Z,30.32
2023-06-19T18:41:16.366Z,30.02
2023-06-19T18:43:44.018Z,29.84
2023-06-19T18:46:12.409Z,29.74
2023-06-19T18:48:41.922Z,29.81
2023-06-19T18:51:09.507Z,29.62
2023-06-19T18:53:38.506Z,29.58
2023-06-19T18:56:06.361Z,29.77
2023-06-19T18:58:34.014Z,29.66
2023-06-19T19:01:03.146Z,29.74
2023-06-19T19:03:33.749Z,29.74
2023-06-19T19:06:01.625Z,29.74
2023-06-19T19:08:29.235Z,29.65
2023-06-19T19:10:58.531Z,29.65
2023-06-19T19:13:26.204Z,29.76
2023-06-19T19:15:53.856Z,29.74
2023-06-19T19:18:21.494Z,29.70
2023-06-19T19:20:49.048Z,29.74
2023-06-19T19:23:16.718Z,29.67
2023-06-19T19:25:44.484Z,29.71
2023-06-19T19:28:15.150Z,29.49
2023-06-19T19:30:44.823Z,29.29
2023-06-19T19:33:17.363Z,29.22
2023-06-19T19:35:45.207Z,29.22
2023-06-19T19:38:12.811Z,28.63
2023-06-19T19:40:40.402Z,28.60
2023-06-19T19:43:08.041Z,28.63
2023-06-19T19:45:37.113Z,28.54
2023-06-19T19:48:04.955Z,28.36
2023-06-19T19:50:33.026Z,28.50
2023-06-19T19:53:00.965Z,28.03
2023-06-19T19:55:28.544Z,28.20
2023-06-19T19:57:56.222Z,28.30
2023-06-19T20:00:23.934Z,28.34
2023-06-19T20:02:53.171Z,28.42
2023-06-19T20:05:20.972Z,28.52
2023-06-19T20:07:48.652Z,28.52
2023-06-19T20:10:16.248Z,28.36
2023-06-19T20:12:43.832Z,28.54
2023-06-19T20:15:11.877Z,28.67
2023-06-19T20:17:39.485Z,28.61
2023-06-19T20:20:09.024Z,28.39
2023-06-19T20:22:36.573Z,28.42
2023-06-19T20:25:04.299Z,28.44
2023-06-19T20:27:31.924Z,28.41
2023-06-19T20:29:59.586Z,28.58
2023-06-19T20:32:27.225Z,28.50
2023-06-19T20:34:54.870Z,28.62
2023-06-19T20:37:23.894Z,28.44
2023-06-19T20:39:51.503Z,28.60
2023-06-19T20:42:19.813Z,28.59
2023-06-19T20:44:48.745Z,28.52
2023-06-19T20:47:16.323Z,28.58
2023-06-19T20:49:43.954Z,28.50
2023-06-19T20:52:11.570Z,28.48
2023-06-19T20:54:40.536Z,28.46
2023-06-19T20:57:08.368Z,28.42
2023-06-19T20:59:36.528Z,28.31
2023-06-19T21:02:04.573Z,28.41
2023-06-19T21:04:32.833Z,28.35
2023-06-19T21:07:00.534Z,28.44
2023-06-19T21:09:28.108Z,28.30
2023-06-19T21:11:57.055Z,28.31
2023-06-19T21:14:24.674Z,28.32
2023-06-19T21:16:52.343Z,27.41
2023-06-19T21:19:22.907Z,25.89
2023-06-19T21:21:50.500Z,25.82
2023-06-19T21:24:18.171Z,26.14
2023-06-19T21:26:45.845Z,26.32
2023-06-19T21:29:15.020Z,26.86
2023-06-19T21:31:43.626Z,27.00
2023-06-19T21:34:11.294Z,27.27
2023-06-19T21:36:38.874Z,26.93
2023-06-19T21:39:06.491Z,27.32
2023-06-19T21:41:34.056Z,27.36
2023-06-19T21:44:01.602Z,27.45
2023-06-19T21:46:30.659Z,27.47
2023-06-19T21:48:59.665Z,27.59
2023-06-19T21:51:27.214Z,27.68
2023-06-19T21:53:54.842Z,27.65
2023-06-19T21:56:22.500Z,27.74
2023-06-19T21:58:50.151Z,27.35
2023-06-19T22:01:17.747Z,27.44
2023-06-19T22:03:46.683Z,27.17
2023-06-19T22:06:15.252Z,27.35
2023-06-19T22:08:43.425Z,27.30
2023-06-19T22:11:11.219Z,27.55
2023-06-19T22:13:40.313Z,27.63
2023-06-19T22:16:09.181Z,27.45
2023-06-19T22:18:37.013Z,27.21
2023-06-19T22:21:06.241Z,26.67
2023-06-19T22:23:33.934Z,26.15
2023-06-19T22:26:01.543Z,26.46
2023-06-19T22:28:29.183Z,26.28
2023-06-19T22:30:56.818Z,26.19
2023-06-19T22:33:24.452Z,25.96
2023-06-19T22:35:52.083Z,26.09
2023-06-19T22:38:21.326Z,26.04
2023-06-19T22:41:16.795Z,26.12
2023-06-19T22:44:09.916Z,26.17
2023-06-19T22:46:37.542Z,26.05
2023-06-19T22:49:05.491Z,25.93
2023-06-19T22:51:33.780Z,25.80
2023-06-19T22:54:02.919Z,25.99
2023-06-19T22:56:30.492Z,26.24
2023-06-19T22:59:00.574Z,26.29
2023-06-19T23:01:31.413Z,26.14
2023-06-19T23:03:59.225Z,25.88
2023-06-19T23:06:27.642Z,25.85
2023-06-19T23:08:55.260Z,25.87
2023-06-19T23:11:24.180Z,26.21
2023-06-19T23:13:51.778Z,25.82
2023-06-19T23:16:19.379Z,25.99
2023-06-19T23:18:47.004Z,26.21
2023-06-19T23:21:14.622Z,25.98
2023-06-19T23:23:48.075Z,25.96
2023-06-19T23:26:16.127Z,25.87
2023-06-19T23:28:45.115Z,25.95
2023-06-19T23:31:12.794Z,26.00
2023-06-19T23:33:40.389Z,26.01
2023-06-19T23:36:08.118Z,26.06
2023-06-19T23:38:36.048Z,26.20
2023-06-19T23:41:04.076Z,26.32
2023-06-19T23:43:31.662Z,26.53
2023-06-19T23:46:00.645Z,26.70
2023-06-19T23:48:28.300Z,26.90
2023-06-19T23:50:55.865Z,26.97
2023-06-19T23:53:23.451Z,26.40
2023-06-19T23:55:51.126Z,26.40
2023-06-19T23:58:19.147Z,26.66
